Seattle, WA

3:58 PM PDT on September 03, 2015 (GMT -0700)
University District | | Change Station
CLOSE
Current Station
Personal Weather Station
Location: Seattle, WA
Elevation: 26 ft
Nearby Weather Stations

Elev 26 ft 47.65 °N, 122.30 °W | Updated 3 minutes ago

Mostly Cloudy
Mostly Cloudy
63.3 °F
Feels Like 63.3 °F
N
10.0
Wind Variable Wind from SSE
Gusts 16.0 mph

Today
High -- | Low -- °F
--% Chance of Precip.
Yesterday
High -- | Low -- °F
Precip. -- in
6:30 AM 7:45 PM
Waning Gibbous, 66% visible
Pressure 29.98 in
Visibility 10.0 miles
Clouds Scattered Clouds 3000 ft
Mostly Cloudy 20000 ft
Dew Point 47 °F
Humidity 55%
Rainfall 0.00 in
Snow Depth Not available.
UV 2 out of 12
Pollen 1.50 out of 12
Air Quality Not available.
Flu Activity Not available.
METAR KBFI 032253Z VRB04KT 10SM SCT030 BKN200 20/06 A2998 RMK AO2 SLP152 T02000061
Pressure 29.98 in
Visibility 10.0 miles
Clouds Scattered Clouds 3000 ft
Mostly Cloudy 20000 ft
Dew Point 47 °F
Humidity 55%
Rainfall 0.00 in
Snow Depth Not available.
UV 2 out of 12
Pollen 1.50 out of 12
Air Quality Not available.
Flu Activity Not available.
METAR KBFI 032253Z VRB04KT 10SM SCT030 BKN200 20/06 A2998 RMK AO2 SLP152 T02000061

10-Day Weather Forecast

×

Almanac

Astronomy

Sep. 03, 2015 Rise Set
Actual Time
Civil Twilight
Nautical Twilight
Astronomical Twilight
Moon
Length of Visible Light
Length of Day
Tomorrow will be .
, % of the Moon is Illuminated

Today's Extremes

State Highs State Lows

Community

WunderPhotos

Upload Photos

1,852,049 photos uploaded!

WunderBlogs® & News

Nearby

Air Quality

  Air Quality AQ Index Pollutant
Not available.

Snow Depth

Station Depth Elevation

Earthquake Activity

City Distance Mag. Time & Date
Minimum magnitude displayed is 2.5.

Coastal Water Temperatures

Place Temperature

Stations

Nearby Weather Stations

Station Location Temp. Windchill Dew Point Humidity Wind Precip. Elev Updated Type